sensor_id;sensor_type;location;lat;lon;timestamp;pressure;altitude;pressure_sealevel;temperature;humidity
17311;BME280;8773;43.300;0.394;2022-11-22T00:01:15;98867.03;;;7.34;100.00
17311;BME280;8773;43.300;0.394;2022-11-22T00:03:43;98867.25;;;7.40;100.00
17311;BME280;8773;43.300;0.394;2022-11-22T00:06:12;98881.75;;;7.35;100.00
17311;BME280;8773;43.300;0.394;2022-11-22T00:08:40;98886.13;;;7.36;100.00
17311;BME280;8773;43.300;0.394;2022-11-22T00:11:09;98874.81;;;7.34;100.00
17311;BME280;8773;43.300;0.394;2022-11-22T00:13:37;98857.28;;;7.28;100.00
17311;BME280;8773;43.300;0.394;2022-11-22T00:16:05;98820.03;;;7.49;100.00
17311;BME280;8773;43.300;0.394;2022-11-22T00:18:33;98866.28;;;7.38;100.00
17311;BME280;8773;43.300;0.394;2022-11-22T00:21:05;98882.34;;;7.50;100.00
17311;BME280;8773;43.300;0.394;2022-11-22T00:23:34;98888.78;;;7.60;100.00
17311;BME280;8773;43.300;0.394;2022-11-22T00:26:02;98887.03;;;7.59;100.00
17311;BME280;8773;43.300;0.394;2022-11-22T00:28:33;98845.22;;;7.51;100.00
17311;BME280;8773;43.300;0.394;2022-11-22T00:31:02;98829.69;;;7.53;100.00
17311;BME280;8773;43.300;0.394;2022-11-22T00:33:30;98832.47;;;7.58;100.00
17311;BME280;8773;43.300;0.394;2022-11-22T00:35:58;98832.81;;;7.67;100.00
17311;BME280;8773;43.300;0.394;2022-11-22T00:38:28;98834.47;;;7.65;100.00
17311;BME280;8773;43.300;0.394;2022-11-22T00:40:56;98815.66;;;7.48;100.00
17311;BME280;8773;43.300;0.394;2022-11-22T00:43:24;98815.94;;;7.55;100.00
17311;BME280;8773;43.300;0.394;2022-11-22T00:45:53;98814.25;;;7.56;100.00
17311;BME280;8773;43.300;0.394;2022-11-22T00:48:21;98825.13;;;7.68;100.00
17311;BME280;8773;43.300;0.394;2022-11-22T00:50:49;98799.31;;;7.73;100.00
17311;BME280;8773;43.300;0.394;2022-11-22T00:53:17;98809.22;;;7.83;100.00
17311;BME280;8773;43.300;0.394;2022-11-22T00:55:45;98815.34;;;7.85;100.00
17311;BME280;8773;43.300;0.394;2022-11-22T00:58:13;98818.72;;;7.83;100.00
17311;BME280;8773;43.300;0.394;2022-11-22T01:00:41;98808.16;;;7.78;100.00
17311;BME280;8773;43.300;0.394;2022-11-22T01:03:12;98809.09;;;7.80;100.00
17311;BME280;8773;43.300;0.394;2022-11-22T01:05:40;98812.25;;;7.95;100.00
17311;BME280;8773;43.300;0.394;2022-11-22T01:08:08;98811.72;;;8.04;100.00
17311;BME280;8773;43.300;0.394;2022-11-22T01:10:37;98788.50;;;7.85;100.00
17311;BME280;8773;43.300;0.394;2022-11-22T01:13:05;98778.22;;;7.88;100.00
17311;BME280;8773;43.300;0.394;2022-11-22T01:15:34;98781.84;;;7.91;100.00
17311;BME280;8773;43.300;0.394;2022-11-22T01:18:03;98782.03;;;7.97;100.00
17311;BME280;8773;43.300;0.394;2022-11-22T01:20:32;98770.78;;;7.97;100.00
17311;BME280;8773;43.300;0.394;2022-11-22T01:23:00;98773.31;;;7.95;100.00
17311;BME280;8773;43.300;0.394;2022-11-22T01:25:28;98752.09;;;7.83;100.00
17311;BME280;8773;43.300;0.394;2022-11-22T01:27:56;98751.28;;;7.84;100.00
17311;BME280;8773;43.300;0.394;2022-11-22T01:30:24;98760.13;;;7.89;100.00
17311;BME280;8773;43.300;0.394;2022-11-22T01:32:52;98776.63;;;7.91;100.00
17311;BME280;8773;43.300;0.394;2022-11-22T01:35:20;98786.28;;;7.95;100.00
17311;BME280;8773;43.300;0.394;2022-11-22T01:37:49;98788.00;;;7.95;100.00
17311;BME280;8773;43.300;0.394;2022-11-22T01:40:18;98787.03;;;7.91;100.00
17311;BME280;8773;43.300;0.394;2022-11-22T01:42:49;98785.06;;;7.86;100.00
17311;BME280;8773;43.300;0.394;2022-11-22T01:45:40;98799.16;;;7.92;100.00
17311;BME280;8773;43.300;0.394;2022-11-22T01:48:19;98814.72;;;7.91;100.00
17311;BME280;8773;43.300;0.394;2022-11-22T01:50:52;98816.00;;;7.80;100.00
17311;BME280;8773;43.300;0.394;2022-11-22T01:53:27;98803.22;;;7.62;100.00
17311;BME280;8773;43.300;0.394;2022-11-22T01:55:57;98833.03;;;7.50;100.00
17311;BME280;8773;43.300;0.394;2022-11-22T01:58:28;98840.03;;;7.51;100.00
17311;BME280;8773;43.300;0.394;2022-11-22T02:01:01;98845.53;;;7.61;100.00
17311;BME280;8773;43.300;0.394;2022-11-22T02:03:30;98845.53;;;7.61;100.00
17311;BME280;8773;43.300;0.394;2022-11-22T02:06:07;98861.72;;;7.53;100.00
17311;BME280;8773;43.300;0.394;2022-11-22T02:08:45;98870.56;;;7.59;100.00
17311;BME280;8773;43.300;0.394;2022-11-22T02:11:17;98895.69;;;7.60;100.00
17311;BME280;8773;43.300;0.394;2022-11-22T02:13:46;98895.97;;;7.67;100.00
17311;BME280;8773;43.300;0.394;2022-11-22T02:16:15;98911.06;;;7.55;100.00
17311;BME280;8773;43.300;0.394;2022-11-22T02:18:43;98913.16;;;7.64;100.00
17311;BME280;8773;43.300;0.394;2022-11-22T02:21:11;98923.81;;;7.70;100.00
17311;BME280;8773;43.300;0.394;2022-11-22T02:23:54;98923.41;;;7.82;100.00
17311;BME280;8773;43.300;0.394;2022-11-22T02:26:26;98927.06;;;7.66;100.00
17311;BME280;8773;43.300;0.394;2022-11-22T02:28:56;98925.56;;;7.50;100.00
17311;BME280;8773;43.300;0.394;2022-11-22T02:31:43;98930.53;;;7.44;100.00
17311;BME280;8773;43.300;0.394;2022-11-22T02:34:13;98918.91;;;7.34;100.00
17311;BME280;8773;43.300;0.394;2022-11-22T02:36:44;98884.22;;;7.32;100.00
17311;BME280;8773;43.300;0.394;2022-11-22T02:39:15;98883.97;;;7.26;100.00
17311;BME280;8773;43.300;0.394;2022-11-22T02:41:46;98880.00;;;7.34;100.00
17311;BME280;8773;43.300;0.394;2022-11-22T02:44:15;98890.81;;;7.24;100.00
17311;BME280;8773;43.300;0.394;2022-11-22T02:46:46;98905.34;;;7.20;100.00
17311;BME280;8773;43.300;0.394;2022-11-22T02:49:18;98914.44;;;7.09;100.00
17311;BME280;8773;43.300;0.394;2022-11-22T02:51:47;98920.81;;;7.17;100.00
17311;BME280;8773;43.300;0.394;2022-11-22T02:54:17;98901.91;;;6.99;100.00
17311;BME280;8773;43.300;0.394;2022-11-22T02:56:47;98911.00;;;7.10;100.00
17311;BME280;8773;43.300;0.394;2022-11-22T02:59:15;98914.22;;;7.04;100.00
17311;BME280;8773;43.300;0.394;2022-11-22T03:01:43;98918.09;;;7.14;100.00
17311;BME280;8773;43.300;0.394;2022-11-22T03:04:13;98901.13;;;7.22;100.00
17311;BME280;8773;43.300;0.394;2022-11-22T03:06:52;98907.69;;;7.35;100.00
17311;BME280;8773;43.300;0.394;2022-11-22T03:09:21;98903.69;;;7.43;100.00
17311;BME280;8773;43.300;0.394;2022-11-22T03:11:51;98922.78;;;7.45;100.00
17311;BME280;8773;43.300;0.394;2022-11-22T03:14:20;98955.06;;;7.52;100.00
17311;BME280;8773;43.300;0.394;2022-11-22T03:16:49;98968.00;;;7.29;100.00
17311;BME280;8773;43.300;0.394;2022-11-22T03:19:17;98960.53;;;7.37;100.00
17311;BME280;8773;43.300;0.394;2022-11-22T03:21:45;98954.25;;;7.32;100.00
17311;BME280;8773;43.300;0.394;2022-11-22T03:24:13;98938.59;;;7.29;100.00
17311;BME280;8773;43.300;0.394;2022-11-22T03:26:45;98932.53;;;7.28;100.00
17311;BME280;8773;43.300;0.394;2022-11-22T03:29:15;98912.13;;;7.38;100.00
17311;BME280;8773;43.300;0.394;2022-11-22T03:31:43;98902.13;;;7.47;100.00
17311;BME280;8773;43.300;0.394;2022-11-22T03:34:11;98901.38;;;7.28;100.00
17311;BME280;8773;43.300;0.394;2022-11-22T03:36:39;98887.22;;;7.20;100.00
17311;BME280;8773;43.300;0.394;2022-11-22T03:39:08;98884.81;;;7.25;100.00
17311;BME280;8773;43.300;0.394;2022-11-22T03:41:36;98886.09;;;7.14;100.00
17311;BME280;8773;43.300;0.394;2022-11-22T03:44:04;98892.09;;;7.12;100.00
17311;BME280;8773;43.300;0.394;2022-11-22T03:46:34;98932.31;;;7.24;100.00
17311;BME280;8773;43.300;0.394;2022-11-22T03:49:02;98931.81;;;7.11;100.00
17311;BME280;8773;43.300;0.394;2022-11-22T03:51:30;98925.88;;;7.14;100.00
17311;BME280;8773;43.300;0.394;2022-11-22T03:53:58;98919.66;;;7.31;100.00
17311;BME280;8773;43.300;0.394;2022-11-22T03:56:26;98921.69;;;7.39;100.00
17311;BME280;8773;43.300;0.394;2022-11-22T03:58:54;98928.25;;;7.30;100.00
17311;BME280;8773;43.300;0.394;2022-11-22T04:01:22;98926.59;;;7.32;100.00
17311;BME280;8773;43.300;0.394;2022-11-22T04:03:52;98940.09;;;7.24;100.00
17311;BME280;8773;43.300;0.394;2022-11-22T04:06:20;98963.19;;;7.18;100.00
17311;BME280;8773;43.300;0.394;2022-11-22T04:08:48;98984.00;;;7.19;100.00
17311;BME280;8773;43.300;0.394;2022-11-22T04:11:16;98990.69;;;7.14;100.00
17311;BME280;8773;43.300;0.394;2022-11-22T04:13:44;98978.75;;;7.18;100.00
17311;BME280;8773;43.300;0.394;2022-11-22T04:16:30;98969.91;;;7.33;100.00
17311;BME280;8773;43.300;0.394;2022-11-22T04:18:59;98973.38;;;7.34;100.00
17311;BME280;8773;43.300;0.394;2022-11-22T04:21:30;98973.50;;;7.37;100.00
17311;BME280;8773;43.300;0.394;2022-11-22T04:24:01;98972.31;;;7.29;100.00
17311;BME280;8773;43.300;0.394;2022-11-22T04:26:46;98973.56;;;7.18;100.00
17311;BME280;8773;43.300;0.394;2022-11-22T04:29:15;98976.66;;;7.30;100.00
17311;BME280;8773;43.300;0.394;2022-11-22T04:31:43;98966.09;;;7.46;100.00
17311;BME280;8773;43.300;0.394;2022-11-22T04:34:29;98949.00;;;7.51;100.00
17311;BME280;8773;43.300;0.394;2022-11-22T04:36:58;98964.56;;;7.51;100.00
17311;BME280;8773;43.300;0.394;2022-11-22T04:39:26;98961.84;;;7.69;100.00
17311;BME280;8773;43.300;0.394;2022-11-22T04:41:55;98965.81;;;7.82;100.00
17311;BME280;8773;43.300;0.394;2022-11-22T04:44:38;98983.75;;;7.76;100.00
17311;BME280;8773;43.300;0.394;2022-11-22T04:47:10;98973.19;;;7.71;100.00
17311;BME280;8773;43.300;0.394;2022-11-22T04:49:40;98988.16;;;7.58;100.00
17311;BME280;8773;43.300;0.394;2022-11-22T04:52:08;98996.97;;;7.61;100.00
17311;BME280;8773;43.300;0.394;2022-11-22T04:54:54;99010.75;;;7.60;100.00
17311;BME280;8773;43.300;0.394;2022-11-22T04:57:22;99016.81;;;7.61;100.00
17311;BME280;8773;43.300;0.394;2022-11-22T04:59:50;99009.13;;;7.62;100.00
17311;BME280;8773;43.300;0.394;2022-11-22T05:02:18;98999.03;;;7.68;100.00
17311;BME280;8773;43.300;0.394;2022-11-22T05:04:48;98997.81;;;7.81;100.00
17311;BME280;8773;43.300;0.394;2022-11-22T05:07:16;99000.06;;;7.94;100.00
17311;BME280;8773;43.300;0.394;2022-11-22T05:09:44;99001.31;;;8.04;100.00
17311;BME280;8773;43.300;0.394;2022-11-22T05:12:13;99009.91;;;8.03;100.00
17311;BME280;8773;43.300;0.394;2022-11-22T05:14:41;99005.72;;;8.07;100.00
17311;BME280;8773;43.300;0.394;2022-11-22T05:17:09;98994.84;;;7.72;100.00
17311;BME280;8773;43.300;0.394;2022-11-22T05:19:39;98984.81;;;7.60;100.00
17311;BME280;8773;43.300;0.394;2022-11-22T05:22:16;98982.63;;;7.69;100.00
17311;BME280;8773;43.300;0.394;2022-11-22T05:25:05;98982.91;;;7.77;100.00
17311;BME280;8773;43.300;0.394;2022-11-22T05:27:33;98995.91;;;7.77;100.00
17311;BME280;8773;43.300;0.394;2022-11-22T05:30:01;98996.59;;;7.73;100.00
17311;BME280;8773;43.300;0.394;2022-11-22T05:32:29;98988.50;;;7.44;100.00
17311;BME280;8773;43.300;0.394;2022-11-22T05:34:57;98987.91;;;7.09;100.00
17311;BME280;8773;43.300;0.394;2022-11-22T05:37:30;98982.69;;;7.29;100.00
17311;BME280;8773;43.300;0.394;2022-11-22T05:39:58;98970.44;;;7.05;100.00
17311;BME280;8773;43.300;0.394;2022-11-22T05:42:28;98962.19;;;7.14;100.00
17311;BME280;8773;43.300;0.394;2022-11-22T05:44:56;98950.72;;;7.30;100.00
17311;BME280;8773;43.300;0.394;2022-11-22T05:47:24;98955.16;;;7.11;100.00
17311;BME280;8773;43.300;0.394;2022-11-22T05:49:54;98942.72;;;6.83;100.00
17311;BME280;8773;43.300;0.394;2022-11-22T05:52:23;98946.78;;;6.98;100.00
17311;BME280;8773;43.300;0.394;2022-11-22T05:54:52;98941.66;;;7.20;100.00
17311;BME280;8773;43.300;0.394;2022-11-22T05:57:20;98932.44;;;7.06;100.00
17311;BME280;8773;43.300;0.394;2022-11-22T05:59:48;98926.25;;;7.02;100.00
17311;BME280;8773;43.300;0.394;2022-11-22T06:02:16;98930.56;;;7.02;100.00
17311;BME280;8773;43.300;0.394;2022-11-22T06:04:44;98921.63;;;7.16;100.00
17311;BME280;8773;43.300;0.394;2022-11-22T06:07:12;98915.81;;;7.22;100.00
17311;BME280;8773;43.300;0.394;2022-11-22T06:09:41;98936.09;;;7.32;100.00
17311;BME280;8773;43.300;0.394;2022-11-22T06:12:11;98954.50;;;7.38;100.00
17311;BME280;8773;43.300;0.394;2022-11-22T06:14:39;98955.56;;;7.43;100.00
17311;BME280;8773;43.300;0.394;2022-11-22T06:17:09;98962.53;;;7.23;100.00
17311;BME280;8773;43.300;0.394;2022-11-22T06:19:37;98945.66;;;7.33;100.00
17311;BME280;8773;43.300;0.394;2022-11-22T06:22:05;98945.91;;;7.39;100.00
17311;BME280;8773;43.300;0.394;2022-11-22T06:24:33;98956.22;;;7.59;100.00
17311;BME280;8773;43.300;0.394;2022-11-22T06:27:01;98943.81;;;7.51;100.00
17311;BME280;8773;43.300;0.394;2022-11-22T06:29:30;98947.75;;;7.42;100.00
17311;BME280;8773;43.300;0.394;2022-11-22T06:31:59;98944.03;;;7.58;100.00
17311;BME280;8773;43.300;0.394;2022-11-22T06:34:29;98950.75;;;7.52;100.00
17311;BME280;8773;43.300;0.394;2022-11-22T06:36:59;98958.63;;;7.54;100.00
17311;BME280;8773;43.300;0.394;2022-11-22T06:39:27;98944.63;;;7.50;100.00
17311;BME280;8773;43.300;0.394;2022-11-22T06:41:55;98947.59;;;7.60;100.00
17311;BME280;8773;43.300;0.394;2022-11-22T06:44:23;98946.53;;;7.54;100.00
17311;BME280;8773;43.300;0.394;2022-11-22T06:46:55;98949.22;;;7.58;100.00
17311;BME280;8773;43.300;0.394;2022-11-22T06:49:23;98940.28;;;7.49;100.00
17311;BME280;8773;43.300;0.394;2022-11-22T06:51:51;98936.22;;;7.56;100.00
17311;BME280;8773;43.300;0.394;2022-11-22T06:54:19;98926.53;;;7.52;100.00
17311;BME280;8773;43.300;0.394;2022-11-22T06:56:47;98931.47;;;7.46;100.00
17311;BME280;8773;43.300;0.394;2022-11-22T06:59:15;98952.13;;;7.65;100.00
17311;BME280;8773;43.300;0.394;2022-11-22T07:01:43;98979.44;;;7.55;100.00
17311;BME280;8773;43.300;0.394;2022-11-22T07:04:14;98998.53;;;7.58;100.00
17311;BME280;8773;43.300;0.394;2022-11-22T07:06:42;99007.09;;;7.55;100.00
17311;BME280;8773;43.300;0.394;2022-11-22T07:09:12;99011.16;;;7.48;100.00
17311;BME280;8773;43.300;0.394;2022-11-22T07:11:40;99013.28;;;7.38;100.00
17311;BME280;8773;43.300;0.394;2022-11-22T07:14:08;99012.47;;;7.60;100.00
17311;BME280;8773;43.300;0.394;2022-11-22T07:16:37;99009.47;;;7.70;100.00
17311;BME280;8773;43.300;0.394;2022-11-22T07:19:05;99013.19;;;7.76;100.00
17311;BME280;8773;43.300;0.394;2022-11-22T07:21:35;99000.44;;;7.83;100.00
17311;BME280;8773;43.300;0.394;2022-11-22T07:24:05;98992.19;;;7.93;100.00
17311;BME280;8773;43.300;0.394;2022-11-22T07:26:33;98990.94;;;8.06;100.00
17311;BME280;8773;43.300;0.394;2022-11-22T07:29:01;98991.59;;;8.00;100.00
17311;BME280;8773;43.300;0.394;2022-11-22T07:31:30;99000.41;;;8.04;100.00
17311;BME280;8773;43.300;0.394;2022-11-22T07:33:58;99010.81;;;8.04;100.00
17311;BME280;8773;43.300;0.394;2022-11-22T07:36:26;99023.66;;;8.01;100.00
17311;BME280;8773;43.300;0.394;2022-11-22T07:38:57;99029.19;;;7.87;100.00
17311;BME280;8773;43.300;0.394;2022-11-22T07:41:25;99048.44;;;7.92;100.00
17311;BME280;8773;43.300;0.394;2022-11-22T07:43:53;99046.41;;;8.06;100.00
17311;BME280;8773;43.300;0.394;2022-11-22T07:46:23;99045.97;;;8.18;100.00
17311;BME280;8773;43.300;0.394;2022-11-22T07:48:52;99044.00;;;8.11;100.00
17311;BME280;8773;43.300;0.394;2022-11-22T07:51:20;99026.41;;;8.26;100.00
17311;BME280;8773;43.300;0.394;2022-11-22T07:53:48;99037.97;;;8.34;100.00
17311;BME280;8773;43.300;0.394;2022-11-22T07:56:17;99034.66;;;8.38;100.00
17311;BME280;8773;43.300;0.394;2022-11-22T07:58:46;99019.22;;;8.43;100.00
17311;BME280;8773;43.300;0.394;2022-11-22T08:01:16;99003.09;;;8.52;100.00
17311;BME280;8773;43.300;0.394;2022-11-22T08:03:45;98995.84;;;8.67;100.00
17311;BME280;8773;43.300;0.394;2022-11-22T08:06:14;98994.88;;;8.63;100.00
17311;BME280;8773;43.300;0.394;2022-11-22T08:08:42;98987.09;;;8.65;100.00
17311;BME280;8773;43.300;0.394;2022-11-22T08:11:11;98984.84;;;8.50;100.00
17311;BME280;8773;43.300;0.394;2022-11-22T08:13:40;98976.44;;;8.57;100.00
17311;BME280;8773;43.300;0.394;2022-11-22T08:16:11;98968.31;;;8.72;100.00
17311;BME280;8773;43.300;0.394;2022-11-22T08:18:40;98969.94;;;8.69;100.00
17311;BME280;8773;43.300;0.394;2022-11-22T08:21:13;98972.34;;;8.64;100.00
17311;BME280;8773;43.300;0.394;2022-11-22T08:23:42;98961.44;;;8.74;100.00
17311;BME280;8773;43.300;0.394;2022-11-22T08:26:12;98963.34;;;8.78;100.00
17311;BME280;8773;43.300;0.394;2022-11-22T08:28:43;98965.47;;;8.90;100.00
17311;BME280;8773;43.300;0.394;2022-11-22T08:31:13;98970.72;;;8.92;100.00
17311;BME280;8773;43.300;0.394;2022-11-22T08:33:41;98964.41;;;9.09;100.00
17311;BME280;8773;43.300;0.394;2022-11-22T08:36:10;98961.56;;;9.27;100.00
17311;BME280;8773;43.300;0.394;2022-11-22T08:38:38;98973.00;;;9.32;100.00
17311;BME280;8773;43.300;0.394;2022-11-22T08:41:06;98985.13;;;9.32;100.00
17311;BME280;8773;43.300;0.394;2022-11-22T08:43:34;98998.94;;;9.29;100.00
17311;BME280;8773;43.300;0.394;2022-11-22T08:46:05;98998.72;;;9.24;100.00
17311;BME280;8773;43.300;0.394;2022-11-22T08:48:35;98997.63;;;9.18;100.00
17311;BME280;8773;43.300;0.394;2022-11-22T08:51:05;98994.72;;;9.09;100.00
17311;BME280;8773;43.300;0.394;2022-11-22T08:53:35;98991.88;;;9.01;100.00
17311;BME280;8773;43.300;0.394;2022-11-22T08:56:04;98986.88;;;9.07;100.00
17311;BME280;8773;43.300;0.394;2022-11-22T08:58:35;98992.66;;;8.98;100.00
17311;BME280;8773;43.300;0.394;2022-11-22T09:01:06;98991.00;;;9.26;100.00
17311;BME280;8773;43.300;0.394;2022-11-22T09:03:36;98987.47;;;9.25;100.00
17311;BME280;8773;43.300;0.394;2022-11-22T09:06:05;98990.25;;;9.29;100.00
17311;BME280;8773;43.300;0.394;2022-11-22T09:08:54;98989.09;;;9.22;100.00
17311;BME280;8773;43.300;0.394;2022-11-22T09:11:41;98990.31;;;9.06;100.00
17311;BME280;8773;43.300;0.394;2022-11-22T09:14:09;98987.53;;;9.01;100.00
17311;BME280;8773;43.300;0.394;2022-11-22T09:16:39;99001.41;;;8.76;100.00
17311;BME280;8773;43.300;0.394;2022-11-22T09:19:07;98996.50;;;8.85;100.00
17311;BME280;8773;43.300;0.394;2022-11-22T09:21:35;99009.69;;;8.90;100.00
17311;BME280;8773;43.300;0.394;2022-11-22T09:24:03;99014.22;;;8.96;100.00
17311;BME280;8773;43.300;0.394;2022-11-22T09:26:32;99010.19;;;9.04;100.00
17311;BME280;8773;43.300;0.394;2022-11-22T09:29:00;99010.53;;;9.15;100.00
17311;BME280;8773;43.300;0.394;2022-11-22T09:31:29;99028.66;;;9.36;100.00
17311;BME280;8773;43.300;0.394;2022-11-22T09:33:59;99040.63;;;9.31;100.00
17311;BME280;8773;43.300;0.394;2022-11-22T09:36:27;99052.84;;;9.09;100.00
17311;BME280;8773;43.300;0.394;2022-11-22T09:38:56;99051.06;;;9.08;100.00
17311;BME280;8773;43.300;0.394;2022-11-22T09:41:53;99057.16;;;9.09;100.00
17311;BME280;8773;43.300;0.394;2022-11-22T09:44:34;99059.94;;;9.13;100.00
17311;BME280;8773;43.300;0.394;2022-11-22T09:47:16;99053.56;;;9.05;100.00
17311;BME280;8773;43.300;0.394;2022-11-22T09:49:54;99049.81;;;9.21;100.00
17311;BME280;8773;43.300;0.394;2022-11-22T09:52:33;99058.78;;;9.29;100.00
17311;BME280;8773;43.300;0.394;2022-11-22T09:55:19;99054.00;;;9.67;100.00
17311;BME280;8773;43.300;0.394;2022-11-22T09:57:56;99040.03;;;9.90;100.00
17311;BME280;8773;43.300;0.394;2022-11-22T10:00:28;99043.38;;;9.88;100.00
17311;BME280;8773;43.300;0.394;2022-11-22T10:03:04;99043.25;;;10.10;100.00
17311;BME280;8773;43.300;0.394;2022-11-22T10:05:43;99031.59;;;10.56;100.00
17311;BME280;8773;43.300;0.394;2022-11-22T10:08:24;99012.59;;;10.61;100.00
17311;BME280;8773;43.300;0.394;2022-11-22T10:10:56;99010.09;;;10.94;100.00
17311;BME280;8773;43.300;0.394;2022-11-22T10:13:30;99001.13;;;11.17;100.00
17311;BME280;8773;43.300;0.394;2022-11-22T10:16:05;98993.06;;;11.41;100.00
17311;BME280;8773;43.300;0.394;2022-11-22T10:18:40;98981.72;;;11.76;100.00
17311;BME280;8773;43.300;0.394;2022-11-22T10:21:13;98983.69;;;11.86;100.00
17311;BME280;8773;43.300;0.394;2022-11-22T10:23:42;98977.50;;;11.82;100.00
17311;BME280;8773;43.300;0.394;2022-11-22T10:26:19;98960.28;;;11.91;100.00
17311;BME280;8773;43.300;0.394;2022-11-22T10:28:55;98966.41;;;11.91;100.00
17311;BME280;8773;43.300;0.394;2022-11-22T10:31:29;98966.41;;;11.91;100.00
17311;BME280;8773;43.300;0.394;2022-11-22T10:34:03;98986.66;;;12.00;100.00
17311;BME280;8773;43.300;0.394;2022-11-22T10:36:41;98987.78;;;12.11;100.00
17311;BME280;8773;43.300;0.394;2022-11-22T10:39:25;98995.59;;;12.10;100.00
17311;BME280;8773;43.300;0.394;2022-11-22T10:42:20;98989.06;;;11.92;100.00
17311;BME280;8773;43.300;0.394;2022-11-22T10:44:59;98970.88;;;11.24;100.00
17311;BME280;8773;43.300;0.394;2022-11-22T10:47:42;98951.41;;;11.11;100.00
17311;BME280;8773;43.300;0.394;2022-11-22T10:50:16;98953.59;;;11.29;100.00
17311;BME280;8773;43.300;0.394;2022-11-22T10:52:58;98939.72;;;10.97;100.00
17311;BME280;8773;43.300;0.394;2022-11-22T10:55:41;98932.94;;;11.38;100.00
17311;BME280;8773;43.300;0.394;2022-11-22T10:58:18;98926.34;;;11.54;100.00
17311;BME280;8773;43.300;0.394;2022-11-22T11:00:57;98932.31;;;11.86;100.00
17311;BME280;8773;43.300;0.394;2022-11-22T11:03:29;98931.06;;;11.69;100.00
17311;BME280;8773;43.300;0.394;2022-11-22T11:06:04;98922.94;;;11.95;100.00
17311;BME280;8773;43.300;0.394;2022-11-22T11:08:58;98918.75;;;12.01;100.00
17311;BME280;8773;43.300;0.394;2022-11-22T11:11:51;98901.44;;;12.06;100.00
17311;BME280;8773;43.300;0.394;2022-11-22T11:14:26;98897.53;;;12.30;100.00
17311;BME280;8773;43.300;0.394;2022-11-22T11:17:00;98895.53;;;12.15;100.00
17311;BME280;8773;43.300;0.394;2022-11-22T11:19:33;98898.59;;;12.40;100.00
17311;BME280;8773;43.300;0.394;2022-11-22T11:22:12;98903.22;;;12.52;100.00
17311;BME280;8773;43.300;0.394;2022-11-22T11:25:31;98899.09;;;12.63;100.00
17311;BME280;8773;43.300;0.394;2022-11-22T11:28:02;98902.34;;;12.51;100.00
17311;BME280;8773;43.300;0.394;2022-11-22T11:30:39;98898.50;;;12.34;100.00
17311;BME280;8773;43.300;0.394;2022-11-22T11:33:17;98898.84;;;12.08;100.00
17311;BME280;8773;43.300;0.394;2022-11-22T11:35:45;98879.59;;;12.04;100.00
17311;BME280;8773;43.300;0.394;2022-11-22T11:38:27;98885.03;;;12.14;100.00
17311;BME280;8773;43.300;0.394;2022-11-22T11:40:57;98887.69;;;12.17;100.00
17311;BME280;8773;43.300;0.394;2022-11-22T11:43:26;98871.34;;;11.86;100.00
17311;BME280;8773;43.300;0.394;2022-11-22T11:45:54;98869.28;;;12.12;100.00
17311;BME280;8773;43.300;0.394;2022-11-22T11:48:41;98881.22;;;12.42;100.00
17311;BME280;8773;43.300;0.394;2022-11-22T11:51:14;98879.72;;;12.53;100.00
17311;BME280;8773;43.300;0.394;2022-11-22T11:53:51;98881.75;;;12.69;100.00
17311;BME280;8773;43.300;0.394;2022-11-22T11:56:28;98882.41;;;12.58;100.00
17311;BME280;8773;43.300;0.394;2022-11-22T11:58:58;98871.13;;;12.62;100.00
17311;BME280;8773;43.300;0.394;2022-11-22T12:01:27;98862.97;;;12.45;100.00
17311;BME280;8773;43.300;0.394;2022-11-22T12:04:02;98845.19;;;12.73;100.00
17311;BME280;8773;43.300;0.394;2022-11-22T12:06:32;98825.28;;;12.82;100.00
17311;BME280;8773;43.300;0.394;2022-11-22T12:09:07;98798.53;;;12.48;100.00
17311;BME280;8773;43.300;0.394;2022-11-22T12:11:56;98819.78;;;12.67;100.00
17311;BME280;8773;43.300;0.394;2022-11-22T12:14:25;98829.31;;;12.63;100.00
17311;BME280;8773;43.300;0.394;2022-11-22T12:17:22;98840.84;;;12.75;100.00
17311;BME280;8773;43.300;0.394;2022-11-22T12:19:58;98841.53;;;12.64;100.00
17311;BME280;8773;43.300;0.394;2022-11-22T12:22:32;98843.41;;;12.71;100.00
17311;BME280;8773;43.300;0.394;2022-11-22T12:25:20;98834.78;;;12.77;100.00
17311;BME280;8773;43.300;0.394;2022-11-22T12:28:10;98830.53;;;12.84;100.00
17311;BME280;8773;43.300;0.394;2022-11-22T12:30:42;98821.84;;;12.86;100.00
17311;BME280;8773;43.300;0.394;2022-11-22T12:33:17;98803.63;;;12.91;100.00
17311;BME280;8773;43.300;0.394;2022-11-22T12:35:47;98790.59;;;12.44;100.00
17311;BME280;8773;43.300;0.394;2022-11-22T12:38:19;98779.72;;;12.22;100.00
17311;BME280;8773;43.300;0.394;2022-11-22T12:40:51;98782.44;;;12.27;100.00
17311;BME280;8773;43.300;0.394;2022-11-22T12:43:24;98773.69;;;12.23;100.00
17311;BME280;8773;43.300;0.394;2022-11-22T12:45:55;98786.31;;;12.02;100.00
17311;BME280;8773;43.300;0.394;2022-11-22T12:48:27;98777.94;;;12.20;100.00
17311;BME280;8773;43.300;0.394;2022-11-22T12:51:04;98784.03;;;12.67;100.00
17311;BME280;8773;43.300;0.394;2022-11-22T12:53:35;98780.03;;;12.88;100.00
17311;BME280;8773;43.300;0.394;2022-11-22T12:56:10;98781.31;;;13.14;100.00
17311;BME280;8773;43.300;0.394;2022-11-22T12:58:50;98776.72;;;13.57;100.00
17311;BME280;8773;43.300;0.394;2022-11-22T13:01:25;98768.88;;;13.61;100.00
17311;BME280;8773;43.300;0.394;2022-11-22T13:03:59;98757.97;;;13.30;100.00
17311;BME280;8773;43.300;0.394;2022-11-22T13:06:33;98756.47;;;13.46;100.00
17311;BME280;8773;43.300;0.394;2022-11-22T13:09:05;98749.44;;;13.43;100.00
17311;BME280;8773;43.300;0.394;2022-11-22T13:11:39;98746.50;;;13.20;100.00
17311;BME280;8773;43.300;0.394;2022-11-22T13:14:12;98746.25;;;13.06;100.00
17311;BME280;8773;43.300;0.394;2022-11-22T13:16:56;98742.13;;;13.18;100.00
17311;BME280;8773;43.300;0.394;2022-11-22T13:19:25;98739.13;;;12.96;100.00
17311;BME280;8773;43.300;0.394;2022-11-22T13:22:07;98733.72;;;12.84;100.00
17311;BME280;8773;43.300;0.394;2022-11-22T13:24:50;98724.31;;;12.95;100.00
17311;BME280;8773;43.300;0.394;2022-11-22T13:27:26;98722.66;;;13.03;100.00
17311;BME280;8773;43.300;0.394;2022-11-22T13:30:12;98711.13;;;12.90;100.00
17311;BME280;8773;43.300;0.394;2022-11-22T13:32:46;98707.13;;;13.12;100.00